sensor_id;sensor_type;location;lat;lon;timestamp;pressure;altitude;pressure_sealevel;temperature;humidity
77019;BME280;66044;53.142;17.962;2023-04-03T00:00:33;102154.70;;;-0.04;64.10
77019;BME280;66044;53.142;17.962;2023-04-03T00:03:15;102151.91;;;-0.05;63.95
77019;BME280;66044;53.142;17.962;2023-04-03T00:05:41;102154.27;;;-0.07;64.17
77019;BME280;66044;53.142;17.962;2023-04-03T00:08:08;102155.70;;;-0.09;64.25
77019;BME280;66044;53.142;17.962;2023-04-03T00:10:36;102153.20;;;-0.13;63.97
77019;BME280;66044;53.142;17.962;2023-04-03T00:13:04;102149.10;;;-0.16;64.20
77019;BME280;66044;53.142;17.962;2023-04-03T00:15:32;102146.65;;;-0.20;64.36
77019;BME280;66044;53.142;17.962;2023-04-03T00:17:59;102149.57;;;-0.23;64.17
77019;BME280;66044;53.142;17.962;2023-04-03T00:20:25;102145.13;;;-0.26;64.09
77019;BME280;66044;53.142;17.962;2023-04-03T00:22:53;102147.64;;;-0.30;64.46
77019;BME280;66044;53.142;17.962;2023-04-03T00:25:21;102145.85;;;-0.34;64.57
77019;BME280;66044;53.142;17.962;2023-04-03T00:27:47;102146.37;;;-0.37;64.61
77019;BME280;66044;53.142;17.962;2023-04-03T00:30:16;102147.81;;;-0.39;64.62
77019;BME280;66044;53.142;17.962;2023-04-03T00:32:43;102143.63;;;-0.38;64.64
77019;BME280;66044;53.142;17.962;2023-04-03T00:35:10;102141.15;;;-0.37;64.85
77019;BME280;66044;53.142;17.962;2023-04-03T00:37:37;102144.75;;;-0.35;64.76
77019;BME280;66044;53.142;17.962;2023-04-03T00:40:05;102142.27;;;-0.32;64.62
77019;BME280;66044;53.142;17.962;2023-04-03T00:42:32;102139.94;;;-0.28;64.82
77019;BME280;66044;53.142;17.962;2023-04-03T00:47:27;102140.47;;;-0.27;64.87
77019;BME280;66044;53.142;17.962;2023-04-03T00:49:53;102145.50;;;-0.28;65.00
77019;BME280;66044;53.142;17.962;2023-04-03T00:52:25;102144.77;;;-0.30;64.93
77019;BME280;66044;53.142;17.962;2023-04-03T00:54:57;102145.96;;;-0.32;65.21
77019;BME280;66044;53.142;17.962;2023-04-03T00:57:26;102150.56;;;-0.35;65.10
77019;BME280;66044;53.142;17.962;2023-04-03T00:59:57;102150.15;;;-0.38;65.32
77019;BME280;66044;53.142;17.962;2023-04-03T01:02:26;102149.24;;;-0.42;65.18
77019;BME280;66044;53.142;17.962;2023-04-03T01:04:52;102147.08;;;-0.45;65.37
77019;BME280;66044;53.142;17.962;2023-04-03T01:07:24;102146.09;;;-0.49;65.19
77019;BME280;66044;53.142;17.962;2023-04-03T01:09:56;102143.19;;;-0.55;65.63
77019;BME280;66044;53.142;17.962;2023-04-03T01:12:30;102148.80;;;-0.57;65.40
77019;BME280;66044;53.142;17.962;2023-04-03T01:15:06;102149.96;;;-0.61;65.58
77019;BME280;66044;53.142;17.962;2023-04-03T01:17:40;102149.70;;;-0.64;65.68
77019;BME280;66044;53.142;17.962;2023-04-03T01:25:50;102155.59;;;-0.68;65.59
77019;BME280;66044;53.142;17.962;2023-04-03T01:28:20;102155.23;;;-0.66;65.89
77019;BME280;66044;53.142;17.962;2023-04-03T01:33:32;102157.10;;;-0.60;65.91
77019;BME280;66044;53.142;17.962;2023-04-03T01:35:59;102159.56;;;-0.58;65.69
77019;BME280;66044;53.142;17.962;2023-04-03T01:38:25;102159.23;;;-0.57;65.66
77019;BME280;66044;53.142;17.962;2023-04-03T01:40:52;102161.49;;;-0.55;65.76
77019;BME280;66044;53.142;17.962;2023-04-03T01:43:18;102162.88;;;-0.55;66.17
77019;BME280;66044;53.142;17.962;2023-04-03T01:45:45;102162.31;;;-0.56;66.09
77019;BME280;66044;53.142;17.962;2023-04-03T01:48:13;102166.34;;;-0.58;66.04
77019;BME280;66044;53.142;17.962;2023-04-03T01:50:39;102164.86;;;-0.60;65.93
77019;BME280;66044;53.142;17.962;2023-04-03T01:53:06;102167.20;;;-0.63;65.96
77019;BME280;66044;53.142;17.962;2023-04-03T01:55:33;102166.15;;;-0.66;66.31
77019;BME280;66044;53.142;17.962;2023-04-03T01:57:59;102170.56;;;-0.68;66.15
77019;BME280;66044;53.142;17.962;2023-04-03T02:00:26;102170.45;;;-0.71;66.23
77019;BME280;66044;53.142;17.962;2023-04-03T02:02:52;102169.07;;;-0.76;66.25
77019;BME280;66044;53.142;17.962;2023-04-03T02:05:19;102169.57;;;-0.77;66.33
77019;BME280;66044;53.142;17.962;2023-04-03T02:07:45;102169.20;;;-0.79;65.98
77019;BME280;66044;53.142;17.962;2023-04-03T02:10:13;102167.30;;;-0.77;66.25
77019;BME280;66044;53.142;17.962;2023-04-03T02:12:40;102171.14;;;-0.76;66.26
77019;BME280;66044;53.142;17.962;2023-04-03T02:15:08;102170.22;;;-0.73;66.13
77019;BME280;66044;53.142;17.962;2023-04-03T02:17:34;102172.81;;;-0.70;66.32
77019;BME280;66044;53.142;17.962;2023-04-03T02:20:02;102173.42;;;-0.66;66.30
77019;BME280;66044;53.142;17.962;2023-04-03T02:22:30;102172.45;;;-0.60;66.43
77019;BME280;66044;53.142;17.962;2023-04-03T02:24:56;102171.94;;;-0.57;66.35
77019;BME280;66044;53.142;17.962;2023-04-03T02:27:23;102171.97;;;-0.56;66.47
77019;BME280;66044;53.142;17.962;2023-04-03T02:29:49;102171.89;;;-0.55;66.68
77019;BME280;66044;53.142;17.962;2023-04-03T02:32:16;102175.99;;;-0.56;66.58
77019;BME280;66044;53.142;17.962;2023-04-03T02:34:42;102175.79;;;-0.57;66.73
77019;BME280;66044;53.142;17.962;2023-04-03T02:37:09;102178.13;;;-0.59;66.72
77019;BME280;66044;53.142;17.962;2023-04-03T02:39:35;102180.67;;;-0.63;66.64
77019;BME280;66044;53.142;17.962;2023-04-03T02:42:02;102185.32;;;-0.67;66.43
77019;BME280;66044;53.142;17.962;2023-04-03T02:44:29;102189.98;;;-0.70;66.73
77019;BME280;66044;53.142;17.962;2023-04-03T02:46:55;102191.21;;;-0.74;66.81
77019;BME280;66044;53.142;17.962;2023-04-03T02:49:22;102192.41;;;-0.77;66.82
77019;BME280;66044;53.142;17.962;2023-04-03T02:51:48;102193.92;;;-0.82;66.89
77019;BME280;66044;53.142;17.962;2023-04-03T02:54:15;102194.90;;;-0.86;66.86
77019;BME280;66044;53.142;17.962;2023-04-03T02:56:41;102197.07;;;-0.91;66.78
77019;BME280;66044;53.142;17.962;2023-04-03T02:59:08;102199.45;;;-0.94;66.72
77019;BME280;66044;53.142;17.962;2023-04-03T03:01:34;102201.27;;;-0.96;67.04
77019;BME280;66044;53.142;17.962;2023-04-03T03:04:02;102201.80;;;-0.97;67.02
77019;BME280;66044;53.142;17.962;2023-04-03T03:06:29;102200.84;;;-0.97;67.18
77019;BME280;66044;53.142;17.962;2023-04-03T03:08:55;102203.75;;;-0.94;67.11
77019;BME280;66044;53.142;17.962;2023-04-03T03:11:22;102205.79;;;-0.91;67.05
77019;BME280;66044;53.142;17.962;2023-04-03T03:13:48;102204.04;;;-0.88;67.02
77019;BME280;66044;53.142;17.962;2023-04-03T03:16:15;102206.33;;;-0.84;66.98
77019;BME280;66044;53.142;17.962;2023-04-03T03:18:42;102207.16;;;-0.82;66.89
77019;BME280;66044;53.142;17.962;2023-04-03T03:21:09;102212.19;;;-0.81;67.14
77019;BME280;66044;53.142;17.962;2023-04-03T03:23:36;102212.75;;;-0.81;66.85
77019;BME280;66044;53.142;17.962;2023-04-03T03:26:09;102210.44;;;-0.82;66.82
77019;BME280;66044;53.142;17.962;2023-04-03T03:28:37;102208.96;;;-0.84;67.21
77019;BME280;66044;53.142;17.962;2023-04-03T03:31:04;102209.35;;;-0.87;67.30
77019;BME280;66044;53.142;17.962;2023-04-03T03:33:31;102210.94;;;-0.89;67.33
77019;BME280;66044;53.142;17.962;2023-04-03T03:35:58;102218.47;;;-0.93;67.39
77019;BME280;66044;53.142;17.962;2023-04-03T03:38:26;102217.67;;;-0.96;67.30
77019;BME280;66044;53.142;17.962;2023-04-03T03:40:52;102220.14;;;-0.99;67.47
77019;BME280;66044;53.142;17.962;2023-04-03T03:43:19;102216.24;;;-1.03;67.50
77019;BME280;66044;53.142;17.962;2023-04-03T03:45:53;102220.61;;;-1.07;67.46
77019;BME280;66044;53.142;17.962;2023-04-03T03:48:20;102224.84;;;-1.11;67.58
77019;BME280;66044;53.142;17.962;2023-04-03T03:50:47;102221.34;;;-1.13;67.69
77019;BME280;66044;53.142;17.962;2023-04-03T03:53:14;102223.12;;;-1.13;67.55
77019;BME280;66044;53.142;17.962;2023-04-03T03:55:41;102226.52;;;-1.14;67.59
77019;BME280;66044;53.142;17.962;2023-04-03T03:58:07;102227.14;;;-1.13;67.86
77019;BME280;66044;53.142;17.962;2023-04-03T04:00:34;102229.59;;;-1.11;67.85
77019;BME280;66044;53.142;17.962;2023-04-03T04:03:01;102233.52;;;-1.07;68.02
77019;BME280;66044;53.142;17.962;2023-04-03T04:05:27;102235.48;;;-1.04;67.61
77019;BME280;66044;53.142;17.962;2023-04-03T04:07:54;102235.71;;;-1.00;67.70
77019;BME280;66044;53.142;17.962;2023-04-03T04:10:20;102238.45;;;-0.97;67.57
77019;BME280;66044;53.142;17.962;2023-04-03T04:12:47;102241.89;;;-0.95;67.78
77019;BME280;66044;53.142;17.962;2023-04-03T04:15:15;102243.35;;;-0.95;67.46
77019;BME280;66044;53.142;17.962;2023-04-03T04:17:41;102244.08;;;-0.94;67.52
77019;BME280;66044;53.142;17.962;2023-04-03T04:20:09;102247.08;;;-0.94;67.64
77019;BME280;66044;53.142;17.962;2023-04-03T04:22:35;102249.27;;;-0.94;67.48
77019;BME280;66044;53.142;17.962;2023-04-03T04:25:02;102251.58;;;-0.94;67.82
77019;BME280;66044;53.142;17.962;2023-04-03T04:27:28;102254.34;;;-0.95;67.70
77019;BME280;66044;53.142;17.962;2023-04-03T04:29:55;102249.92;;;-0.95;67.75
77019;BME280;66044;53.142;17.962;2023-04-03T04:32:21;102251.83;;;-0.95;67.59
77019;BME280;66044;53.142;17.962;2023-04-03T04:34:47;102254.22;;;-0.94;67.52
77019;BME280;66044;53.142;17.962;2023-04-03T04:37:14;102254.59;;;-0.93;67.95
77019;BME280;66044;53.142;17.962;2023-04-03T04:39:40;102256.04;;;-0.92;68.00
77019;BME280;66044;53.142;17.962;2023-04-03T04:42:07;102252.88;;;-0.92;67.61
77019;BME280;66044;53.142;17.962;2023-04-03T04:44:39;102254.39;;;-0.89;67.60
77019;BME280;66044;53.142;17.962;2023-04-03T04:47:06;102257.75;;;-0.86;67.72
77019;BME280;66044;53.142;17.962;2023-04-03T04:49:32;102259.80;;;-0.81;67.33
77019;BME280;66044;53.142;17.962;2023-04-03T04:51:58;102262.56;;;-0.76;67.44
77019;BME280;66044;53.142;17.962;2023-04-03T04:54:25;102265.91;;;-0.69;67.36
77019;BME280;66044;53.142;17.962;2023-04-03T04:56:51;102266.23;;;-0.62;67.24
77019;BME280;66044;53.142;17.962;2023-04-03T04:59:18;102266.86;;;-0.53;67.43
77019;BME280;66044;53.142;17.962;2023-04-03T05:01:44;102270.65;;;-0.41;67.24
77019;BME280;66044;53.142;17.962;2023-04-03T05:04:11;102277.80;;;-0.28;67.04
77019;BME280;66044;53.142;17.962;2023-04-03T05:06:39;102281.16;;;-0.18;67.03
77019;BME280;66044;53.142;17.962;2023-04-03T05:09:05;102284.02;;;-0.07;66.61
77019;BME280;66044;53.142;17.962;2023-04-03T05:11:32;102284.42;;;0.04;66.42
77019;BME280;66044;53.142;17.962;2023-04-03T05:13:59;102283.10;;;0.16;66.30
77019;BME280;66044;53.142;17.962;2023-04-03T05:16:26;102286.64;;;0.28;66.15
77019;BME280;66044;53.142;17.962;2023-04-03T05:18:52;102286.98;;;0.41;65.96
77019;BME280;66044;53.142;17.962;2023-04-03T05:21:18;102288.48;;;0.57;65.98
77019;BME280;66044;53.142;17.962;2023-04-03T05:23:45;102287.20;;;0.78;65.53
77019;BME280;66044;53.142;17.962;2023-04-03T05:26:11;102288.50;;;0.99;65.17
77019;BME280;66044;53.142;17.962;2023-04-03T05:28:38;102289.28;;;1.16;64.80
77019;BME280;66044;53.142;17.962;2023-04-03T05:31:05;102288.42;;;1.41;64.51
77019;BME280;66044;53.142;17.962;2023-04-03T05:33:31;102289.08;;;1.93;63.85
77019;BME280;66044;53.142;17.962;2023-04-03T05:36:03;102291.31;;;2.63;62.86
77019;BME280;66044;53.142;17.962;2023-04-03T05:38:30;102295.26;;;3.13;62.14
77019;BME280;66044;53.142;17.962;2023-04-03T05:40:56;102298.95;;;5.41;59.65
77019;BME280;66044;53.142;17.962;2023-04-03T05:43:23;102304.85;;;8.05;56.97
77019;BME280;66044;53.142;17.962;2023-04-03T05:45:51;102311.32;;;10.42;53.88
77019;BME280;66044;53.142;17.962;2023-04-03T05:48:17;102312.40;;;12.53;51.33
77019;BME280;66044;53.142;17.962;2023-04-03T05:50:45;102318.92;;;14.38;48.05
77019;BME280;66044;53.142;17.962;2023-04-03T05:53:25;102323.01;;;16.01;45.72
77019;BME280;66044;53.142;17.962;2023-04-03T05:55:53;102329.58;;;17.49;42.64
77019;BME280;66044;53.142;17.962;2023-04-03T05:58:20;102325.54;;;18.07;40.58
77019;BME280;66044;53.142;17.962;2023-04-03T06:00:46;102332.10;;;18.53;38.74
77019;BME280;66044;53.142;17.962;2023-04-03T06:03:13;102327.04;;;17.02;38.30
77019;BME280;66044;53.142;17.962;2023-04-03T06:05:39;102327.33;;;15.18;37.82
77019;BME280;66044;53.142;17.962;2023-04-03T06:08:06;102321.70;;;13.53;38.33
77019;BME280;66044;53.142;17.962;2023-04-03T06:10:32;102320.46;;;12.31;39.33
77019;BME280;66044;53.142;17.962;2023-04-03T06:13:16;102321.27;;;11.68;39.60
77019;BME280;66044;53.142;17.962;2023-04-03T06:15:43;102317.14;;;12.16;39.56
77019;BME280;66044;53.142;17.962;2023-04-03T06:18:09;102329.16;;;13.25;38.65
77019;BME280;66044;53.142;17.962;2023-04-03T06:20:36;102329.94;;;14.04;37.92
77019;BME280;66044;53.142;17.962;2023-04-03T06:23:02;102335.50;;;13.46;38.34
77019;BME280;66044;53.142;17.962;2023-04-03T06:25:29;102334.95;;;13.90;37.52
77019;BME280;66044;53.142;17.962;2023-04-03T06:27:58;102341.92;;;15.57;36.37
77019;BME280;66044;53.142;17.962;2023-04-03T06:30:25;102348.95;;;17.62;34.95
77019;BME280;66044;53.142;17.962;2023-04-03T06:32:51;102356.91;;;19.46;33.84
77019;BME280;66044;53.142;17.962;2023-04-03T06:35:18;102356.48;;;21.33;32.62
77019;BME280;66044;53.142;17.962;2023-04-03T06:37:45;102360.96;;;22.20;30.52
77019;BME280;66044;53.142;17.962;2023-04-03T06:40:21;102368.31;;;23.54;29.79
77019;BME280;66044;53.142;17.962;2023-04-03T06:42:48;102374.09;;;24.49;26.63
77019;BME280;66044;53.142;17.962;2023-04-03T06:45:15;102370.34;;;25.10;25.65
77019;BME280;66044;53.142;17.962;2023-04-03T06:47:41;102368.68;;;25.38;25.20
77019;BME280;66044;53.142;17.962;2023-04-03T06:50:09;102373.60;;;24.14;24.29
77019;BME280;66044;53.142;17.962;2023-04-03T06:52:37;102379.59;;;23.03;24.05
77019;BME280;66044;53.142;17.962;2023-04-03T06:55:06;102378.52;;;22.47;23.25
77019;BME280;66044;53.142;17.962;2023-04-03T06:57:32;102377.11;;;21.52;23.79
77019;BME280;66044;53.142;17.962;2023-04-03T06:59:59;102383.98;;;22.10;23.30
77019;BME280;66044;53.142;17.962;2023-04-03T07:02:26;102385.98;;;22.72;22.95
77019;BME280;66044;53.142;17.962;2023-04-03T07:04:52;102382.64;;;22.03;23.36
77019;BME280;66044;53.142;17.962;2023-04-03T07:07:19;102386.62;;;20.20;24.03
77019;BME280;66044;53.142;17.962;2023-04-03T07:09:45;102381.09;;;18.52;24.99
77019;BME280;66044;53.142;17.962;2023-04-03T07:12:14;102386.82;;;17.08;25.84
77019;BME280;66044;53.142;17.962;2023-04-03T07:14:41;102378.95;;;15.80;26.61
77019;BME280;66044;53.142;17.962;2023-04-03T07:17:08;102379.38;;;14.19;28.11
77019;BME280;66044;53.142;17.962;2023-04-03T07:19:35;102374.16;;;13.17;29.17
77019;BME280;66044;53.142;17.962;2023-04-03T07:22:02;102376.90;;;12.49;29.84
77019;BME280;66044;53.142;17.962;2023-04-03T07:24:29;102379.04;;;12.01;30.70
77019;BME280;66044;53.142;17.962;2023-04-03T07:26:56;102382.98;;;11.31;31.09
77019;BME280;66044;53.142;17.962;2023-04-03T07:29:23;102378.30;;;10.46;32.40
77019;BME280;66044;53.142;17.962;2023-04-03T07:31:50;102380.16;;;9.84;33.05
77019;BME280;66044;53.142;17.962;2023-04-03T07:34:16;102385.67;;;9.57;33.53
77019;BME280;66044;53.142;17.962;2023-04-03T07:36:43;102393.23;;;11.82;32.28
77019;BME280;66044;53.142;17.962;2023-04-03T07:39:09;102393.05;;;14.05;30.95
77019;BME280;66044;53.142;17.962;2023-04-03T07:41:35;102406.45;;;17.05;28.84
77019;BME280;66044;53.142;17.962;2023-04-03T07:44:02;102406.63;;;19.34;26.95
77019;BME280;66044;53.142;17.962;2023-04-03T07:46:28;102410.05;;;19.72;26.11
77019;BME280;66044;53.142;17.962;2023-04-03T07:48:55;102408.30;;;18.81;25.65
77019;BME280;66044;53.142;17.962;2023-04-03T07:51:21;102406.66;;;19.85;25.14
77019;BME280;66044;53.142;17.962;2023-04-03T07:53:48;102402.33;;;18.67;25.04
77019;BME280;66044;53.142;17.962;2023-04-03T07:56:16;102401.44;;;17.05;25.01
77019;BME280;66044;53.142;17.962;2023-04-03T07:58:43;102402.02;;;16.83;25.84
77019;BME280;66044;53.142;17.962;2023-04-03T08:01:09;102405.23;;;19.53;24.49
77019;BME280;66044;53.142;17.962;2023-04-03T08:03:36;102413.48;;;21.66;23.61
77019;BME280;66044;53.142;17.962;2023-04-03T08:06:05;102408.77;;;23.26;22.13
77019;BME280;66044;53.142;17.962;2023-04-03T08:08:33;102416.69;;;24.46;21.46
77019;BME280;66044;53.142;17.962;2023-04-03T08:11:00;102426.63;;;25.49;20.92
77019;BME280;66044;53.142;17.962;2023-04-03T08:13:29;102419.10;;;25.47;20.21
77019;BME280;66044;53.142;17.962;2023-04-03T08:15:56;102422.44;;;23.72;20.81
77019;BME280;66044;53.142;17.962;2023-04-03T08:18:24;102418.22;;;23.99;20.82
77019;BME280;66044;53.142;17.962;2023-04-03T08:20:51;102420.17;;;22.44;20.12
77019;BME280;66044;53.142;17.962;2023-04-03T08:23:19;102419.27;;;22.13;20.33
77019;BME280;66044;53.142;17.962;2023-04-03T08:25:46;102420.26;;;21.60;20.22
77019;BME280;66044;53.142;17.962;2023-04-03T08:28:12;102421.69;;;21.37;20.51
77019;BME280;66044;53.142;17.962;2023-04-03T08:30:40;102415.61;;;19.38;21.40
77019;BME280;66044;53.142;17.962;2023-04-03T08:33:08;102408.75;;;17.40;22.20
77019;BME280;66044;53.142;17.962;2023-04-03T08:35:40;102399.69;;;16.89;22.95
77019;BME280;66044;53.142;17.962;2023-04-03T08:38:08;102408.52;;;16.85;22.98
77019;BME280;66044;53.142;17.962;2023-04-03T08:40:34;102406.35;;;16.92;23.23
77019;BME280;66044;53.142;17.962;2023-04-03T08:43:54;102398.39;;;16.09;23.49
77019;BME280;66044;53.142;17.962;2023-04-03T08:46:11;102402.35;;;14.59;24.64
77019;BME280;66044;53.142;17.962;2023-04-03T08:48:41;102398.88;;;13.64;25.66
77019;BME280;66044;53.142;17.962;2023-04-03T08:51:16;102400.77;;;12.84;26.24
77019;BME280;66044;53.142;17.962;2023-04-03T08:54:02;102398.09;;;11.77;26.12
77019;BME280;66044;53.142;17.962;2023-04-03T08:56:33;102394.06;;;10.84;27.15
77019;BME280;66044;53.142;17.962;2023-04-03T08:59:04;102397.38;;;10.25;27.59
77019;BME280;66044;53.142;17.962;2023-04-03T09:01:39;102400.98;;;9.43;28.35
77019;BME280;66044;53.142;17.962;2023-04-03T09:04:26;102394.40;;;8.62;29.27
77019;BME280;66044;53.142;17.962;2023-04-03T09:06:57;102390.45;;;7.94;30.29
77019;BME280;66044;53.142;17.962;2023-04-03T09:09:41;102400.19;;;7.42;30.76
77019;BME280;66044;53.142;17.962;2023-04-03T09:18:03;102391.08;;;6.52;32.96
77019;BME280;66044;53.142;17.962;2023-04-03T09:20:53;102388.91;;;6.34;33.48
77019;BME280;66044;53.142;17.962;2023-04-03T09:23:32;102390.98;;;5.92;34.44
77019;BME280;66044;53.142;17.962;2023-04-03T09:26:03;102385.89;;;5.66;34.75
77019;BME280;66044;53.142;17.962;2023-04-03T09:28:38;102389.92;;;5.60;35.24
77019;BME280;66044;53.142;17.962;2023-04-03T09:31:24;102389.55;;;5.50;35.41
77019;BME280;66044;53.142;17.962;2023-04-03T09:33:59;102392.02;;;5.44;35.77
77019;BME280;66044;53.142;17.962;2023-04-03T09:36:46;102382.06;;;5.40;35.41
77019;BME280;66044;53.142;17.962;2023-04-03T09:39:16;102384.64;;;5.60;35.82
77019;BME280;66044;53.142;17.962;2023-04-03T09:42:02;102378.17;;;5.77;35.72
77019;BME280;66044;53.142;17.962;2023-04-03T09:44:54;102381.91;;;5.97;36.01
77019;BME280;66044;53.142;17.962;2023-04-03T09:47:28;102392.62;;;6.06;35.98
77019;BME280;66044;53.142;17.962;2023-04-03T09:50:21;102395.09;;;5.98;36.06
77019;BME280;66044;53.142;17.962;2023-04-03T09:52:50;102400.09;;;5.83;36.14
77019;BME280;66044;53.142;17.962;2023-04-03T09:55:23;102395.77;;;5.68;35.93
77019;BME280;66044;53.142;17.962;2023-04-03T09:58:01;102396.02;;;5.48;35.94
77019;BME280;66044;53.142;17.962;2023-04-03T10:00:39;102386.39;;;5.36;36.19
77019;BME280;66044;53.142;17.962;2023-04-03T10:03:24;102376.30;;;5.48;36.66
77019;BME280;66044;53.142;17.962;2023-04-03T10:05:51;102371.95;;;5.78;36.44
77019;BME280;66044;53.142;17.962;2023-04-03T10:11:10;102379.02;;;6.03;36.36
77019;BME280;66044;53.142;17.962;2023-04-03T10:13:50;102385.55;;;6.03;36.29
77019;BME280;66044;53.142;17.962;2023-04-03T10:16:20;102382.82;;;5.97;36.30
77019;BME280;66044;53.142;17.962;2023-04-03T10:19:42;102387.40;;;5.83;35.94
77019;BME280;66044;53.142;17.962;2023-04-03T10:22:05;102390.08;;;5.74;35.93
77019;BME280;66044;53.142;17.962;2023-04-03T10:24:47;102380.38;;;5.85;35.91
77019;BME280;66044;53.142;17.962;2023-04-03T10:32:58;102396.13;;;5.56;36.30
77019;BME280;66044;53.142;17.962;2023-04-03T10:41:04;102382.91;;;5.26;36.62
77019;BME280;66044;53.142;17.962;2023-04-03T10:46:26;102368.48;;;5.64;36.97
77019;BME280;66044;53.142;17.962;2023-04-03T10:54:21;102386.70;;;5.95;36.48
77019;BME280;66044;53.142;17.962;2023-04-03T10:56:53;102381.70;;;5.91;36.47
77019;BME280;66044;53.142;17.962;2023-04-03T10:59:32;102372.58;;;5.88;36.64
77019;BME280;66044;53.142;17.962;2023-04-03T11:02:07;102370.98;;;6.04;36.60
77019;BME280;66044;53.142;17.962;2023-04-03T11:04:39;102369.23;;;6.24;36.65
77019;BME280;66044;53.142;17.962;2023-04-03T11:07:18;102378.48;;;6.31;36.41
77019;BME280;66044;53.142;17.962;2023-04-03T11:09:51;102383.98;;;6.19;36.18
77019;BME280;66044;53.142;17.962;2023-04-03T11:12:38;102383.41;;;6.03;36.15
77019;BME280;66044;53.142;17.962;2023-04-03T11:15:13;102372.69;;;5.92;36.12
77019;BME280;66044;53.142;17.962;2023-04-03T11:17:48;102372.81;;;5.85;36.36
77019;BME280;66044;53.142;17.962;2023-04-03T11:20:26;102371.61;;;5.77;36.57
77019;BME280;66044;53.142;17.962;2023-04-03T11:23:03;102369.81;;;5.69;36.43
77019;BME280;66044;53.142;17.962;2023-04-03T11:25:33;102356.86;;;5.63;36.17
77019;BME280;66044;53.142;17.962;2023-04-03T11:28:03;102358.16;;;5.60;35.83
77019;BME280;66044;53.142;17.962;2023-04-03T11:30:45;102353.85;;;5.53;36.17
77019;BME280;66044;53.142;17.962;2023-04-03T11:38:45;102342.45;;;5.61;36.54
77019;BME280;66044;53.142;17.962;2023-04-03T11:41:13;102342.62;;;5.73;36.88
77019;BME280;66044;53.142;17.962;2023-04-03T11:44:04;102348.06;;;5.89;36.65
77019;BME280;66044;53.142;17.962;2023-04-03T11:47:01;102338.11;;;6.03;36.63
77019;BME280;66044;53.142;17.962;2023-04-03T12:01:03;102344.14;;;6.08;37.01
77019;BME280;66044;53.142;17.962;2023-04-03T12:03:33;102344.66;;;6.01;36.99
77019;BME280;66044;53.142;17.962;2023-04-03T12:13:36;102343.28;;;6.08;36.77
77019;BME280;66044;53.142;17.962;2023-04-03T12:21:13;102331.61;;;5.96;36.87
77019;BME280;66044;53.142;17.962;2023-04-03T12:29:51;102333.36;;;5.95;36.90
77019;BME280;66044;53.142;17.962;2023-04-03T12:35:43;102323.71;;;6.16;36.79
77019;BME280;66044;53.142;17.962;2023-04-03T12:46:18;102327.70;;;5.99;37.33
77019;BME280;66044;53.142;17.962;2023-04-03T12:48:57;102322.22;;;5.97;37.36
77019;BME280;66044;53.142;17.962;2023-04-03T12:51:38;102323.04;;;5.98;37.07
77019;BME280;66044;53.142;17.962;2023-04-03T12:57:09;102315.14;;;6.05;37.06
77019;BME280;66044;53.142;17.962;2023-04-03T12:59:35;102318.86;;;6.17;37.13
77019;BME280;66044;53.142;17.962;2023-04-03T13:02:02;102316.76;;;6.27;36.99
77019;BME280;66044;53.142;17.962;2023-04-03T13:04:31;102303.06;;;6.29;37.13
77019;BME280;66044;53.142;17.962;2023-04-03T13:06:58;102323.99;;;6.33;36.70
77019;BME280;66044;53.142;17.962;2023-04-03T13:09:27;102320.34;;;6.21;36.25
77019;BME280;66044;53.142;17.962;2023-04-03T13:12:07;102321.15;;;6.16;36.30
77019;BME280;66044;53.142;17.962;2023-04-03T13:14:37;102314.33;;;6.17;36.22
77019;BME280;66044;53.142;17.962;2023-04-03T13:17:12;102315.86;;;6.22;36.50
77019;BME280;66044;53.142;17.962;2023-04-03T13:19:41;102311.12;;;6.29;36.37
77019;BME280;66044;53.142;17.962;2023-04-03T13:22:38;102313.88;;;6.35;36.44
77019;BME280;66044;53.142;17.962;2023-04-03T13:25:13;102309.27;;;6.34;36.35
77019;BME280;66044;53.142;17.962;2023-04-03T13:27:41;102306.46;;;6.36;36.43
77019;BME280;66044;53.142;17.962;2023-04-03T13:30:33;102300.34;;;6.40;36.58
77019;BME280;66044;53.142;17.962;2023-04-03T13:33:03;102296.64;;;6.52;36.75
77019;BME280;66044;53.142;17.962;2023-04-03T13:35:37;102289.93;;;6.56;36.60
77019;BME280;66044;53.142;17.962;2023-04-03T13:40:51;102298.75;;;6.40;36.13
77019;BME280;66044;53.142;17.962;2023-04-03T13:43:23;102300.16;;;6.20;36.00
77019;BME280;66044;53.142;17.962;2023-04-03T13:46:22;102298.55;;;6.04;36.21
77019;BME280;66044;53.142;17.962;2023-04-03T13:48:52;102296.23;;;6.01;36.06
77019;BME280;66044;53.142;17.962;2023-04-03T13:51:23;102289.13;;;6.14;36.31
77019;BME280;66044;53.142;17.962;2023-04-03T13:53:54;102294.52;;;6.21;36.73
77019;BME280;66044;53.142;17.962;2023-04-03T13:56:34;102305.63;;;6.22;36.82
77019;BME280;66044;53.142;17.962;2023-04-03T13:59:22;102301.83;;;6.08;37.34
77019;BME280;66044;53.142;17.962;2023-04-03T14:01:57;102302.54;;;5.96;37.87
77019;BME280;66044;53.142;17.962;2023-04-03T14:07:12;102299.57;;;5.66;38.36
77019;BME280;66044;53.142;17.962;2023-04-03T14:09:39;102298.16;;;5.53;38.57
77019;BME280;66044;53.142;17.962;2023-04-03T14:12:14;102292.89;;;5.59;38.71
77019;BME280;66044;53.142;17.962;2023-04-03T14:14:42;102288.90;;;5.76;38.61
77019;BME280;66044;53.142;17.962;2023-04-03T14:17:16;102287.25;;;6.00;38.49
77019;BME280;66044;53.142;17.962;2023-04-03T14:19:44;102286.23;;;6.12;38.71
77019;BME280;66044;53.142;17.962;2023-04-03T14:22:29;102285.08;;;6.16;38.65
77019;BME280;66044;53.142;17.962;2023-04-03T14:24:56;102286.10;;;6.09;38.84
77019;BME280;66044;53.142;17.962;2023-04-03T14:27:31;102290.17;;;5.98;39.17
77019;BME280;66044;53.142;17.962;2023-04-03T14:29:59;102293.02;;;5.78;39.69
77019;BME280;66044;53.142;17.962;2023-04-03T14:32:27;102292.60;;;5.61;40.33